sensor_id;sensor_type;location;lat;lon;timestamp;pressure;altitude;pressure_sealevel;temperature;humidity
67803;BME280;54601;51.378;-1.342;2023-05-18T00:00:07;101451.44;;;20.56;33.19
67803;BME280;54601;51.378;-1.342;2023-05-18T00:02:31;101448.05;;;20.57;33.17
67803;BME280;54601;51.378;-1.342;2023-05-18T00:04:57;101446.24;;;20.61;33.10
67803;BME280;54601;51.378;-1.342;2023-05-18T00:07:23;101443.71;;;20.36;33.38
67803;BME280;54601;51.378;-1.342;2023-05-18T00:09:49;101444.27;;;20.59;33.12
67803;BME280;54601;51.378;-1.342;2023-05-18T00:12:15;101445.57;;;20.54;33.15
67803;BME280;54601;51.378;-1.342;2023-05-18T00:14:41;101446.91;;;20.34;33.38
67803;BME280;54601;51.378;-1.342;2023-05-18T00:17:07;101450.09;;;20.43;33.27
67803;BME280;54601;51.378;-1.342;2023-05-18T00:19:33;101445.57;;;20.35;33.31
67803;BME280;54601;51.378;-1.342;2023-05-18T00:21:59;101447.02;;;20.57;33.06
67803;BME280;54601;51.378;-1.342;2023-05-18T00:24:25;101446.69;;;20.34;33.32
67803;BME280;54601;51.378;-1.342;2023-05-18T00:26:51;101443.29;;;20.18;33.51
67803;BME280;54601;51.378;-1.342;2023-05-18T00:29:17;101445.93;;;20.47;33.19
67803;BME280;54601;51.378;-1.342;2023-05-18T00:31:43;101444.15;;;20.14;33.56
67803;BME280;54601;51.378;-1.342;2023-05-18T00:34:10;101443.01;;;20.37;33.24
67803;BME280;54601;51.378;-1.342;2023-05-18T00:36:36;101443.89;;;20.41;33.19
67803;BME280;54601;51.378;-1.342;2023-05-18T00:39:02;101444.54;;;20.44;33.17
67803;BME280;54601;51.378;-1.342;2023-05-18T00:41:28;101446.24;;;20.40;33.21
67803;BME280;54601;51.378;-1.342;2023-05-18T00:43:54;101445.04;;;20.45;33.38
67803;BME280;54601;51.378;-1.342;2023-05-18T00:46:19;101446.86;;;20.32;33.28
67803;BME280;54601;51.378;-1.342;2023-05-18T00:48:46;101455.79;;;20.06;33.56
67803;BME280;54601;51.378;-1.342;2023-05-18T00:51:12;101456.73;;;20.39;33.40
67803;BME280;54601;51.378;-1.342;2023-05-18T00:53:37;101453.61;;;20.32;33.25
67803;BME280;54601;51.378;-1.342;2023-05-18T00:56:04;101449.15;;;20.43;33.11
67803;BME280;54601;51.378;-1.342;2023-05-18T00:58:29;101452.91;;;20.16;33.66
67803;BME280;54601;51.378;-1.342;2023-05-18T01:00:56;101450.86;;;20.19;33.59
67803;BME280;54601;51.378;-1.342;2023-05-18T01:03:21;101450.70;;;19.98;33.60
67803;BME280;54601;51.378;-1.342;2023-05-18T01:05:47;101450.23;;;20.06;33.49
67803;BME280;54601;51.378;-1.342;2023-05-18T01:08:13;101447.68;;;20.54;33.46
67803;BME280;54601;51.378;-1.342;2023-05-18T01:10:40;101450.63;;;20.50;33.48
67803;BME280;54601;51.378;-1.342;2023-05-18T01:13:10;101452.58;;;20.14;33.37
67803;BME280;54601;51.378;-1.342;2023-05-18T01:15:33;101455.62;;;20.00;33.53
67803;BME280;54601;51.378;-1.342;2023-05-18T01:18:03;101454.76;;;20.63;33.27
67803;BME280;54601;51.378;-1.342;2023-05-18T01:20:28;101455.38;;;20.55;33.35
67803;BME280;54601;51.378;-1.342;2023-05-18T01:25:17;101452.19;;;20.21;33.22
67803;BME280;54601;51.378;-1.342;2023-05-18T01:27:36;101454.25;;;19.94;33.56
67803;BME280;54601;51.378;-1.342;2023-05-18T01:30:01;101455.35;;;20.06;33.39
67803;BME280;54601;51.378;-1.342;2023-05-18T01:32:25;101456.17;;;20.34;33.58
67803;BME280;54601;51.378;-1.342;2023-05-18T01:34:50;101455.30;;;20.20;33.49
67803;BME280;54601;51.378;-1.342;2023-05-18T01:37:16;101453.09;;;19.90;33.81
67803;BME280;54601;51.378;-1.342;2023-05-18T01:39:42;101452.35;;;20.16;33.50
67803;BME280;54601;51.378;-1.342;2023-05-18T01:42:10;101452.33;;;20.26;33.37
67803;BME280;54601;51.378;-1.342;2023-05-18T01:44:38;101450.28;;;20.18;33.44
67803;BME280;54601;51.378;-1.342;2023-05-18T01:46:59;101450.54;;;20.15;33.20
67803;BME280;54601;51.378;-1.342;2023-05-18T01:49:28;101451.22;;;19.87;33.49
67803;BME280;54601;51.378;-1.342;2023-05-18T01:51:47;101449.08;;;20.06;33.29
67803;BME280;54601;51.378;-1.342;2023-05-18T01:54:14;101456.23;;;19.99;33.39
67803;BME280;54601;51.378;-1.342;2023-05-18T01:56:38;101459.72;;;19.98;33.37
67803;BME280;54601;51.378;-1.342;2023-05-18T01:59:02;101457.46;;;20.35;33.19
67803;BME280;54601;51.378;-1.342;2023-05-18T02:01:27;101459.66;;;20.22;33.33
67803;BME280;54601;51.378;-1.342;2023-05-18T02:03:52;101461.21;;;20.39;33.14
67803;BME280;54601;51.378;-1.342;2023-05-18T02:06:17;101460.56;;;20.01;33.28
67803;BME280;54601;51.378;-1.342;2023-05-18T02:08:42;101457.22;;;20.24;33.24
67803;BME280;54601;51.378;-1.342;2023-05-18T02:11:07;101456.57;;;19.92;33.35
67803;BME280;54601;51.378;-1.342;2023-05-18T02:13:32;101455.15;;;19.98;33.30
67803;BME280;54601;51.378;-1.342;2023-05-18T02:15:57;101454.06;;;19.84;33.71
67803;BME280;54601;51.378;-1.342;2023-05-18T02:18:22;101454.01;;;19.83;33.48
67803;BME280;54601;51.378;-1.342;2023-05-18T02:20:47;101453.87;;;19.92;33.40
67803;BME280;54601;51.378;-1.342;2023-05-18T02:23:12;101457.11;;;19.97;33.27
67803;BME280;54601;51.378;-1.342;2023-05-18T02:25:37;101456.25;;;19.97;33.25
67803;BME280;54601;51.378;-1.342;2023-05-18T02:28:02;101461.51;;;20.10;33.37
67803;BME280;54601;51.378;-1.342;2023-05-18T02:30:27;101460.97;;;20.02;33.48
67803;BME280;54601;51.378;-1.342;2023-05-18T02:32:52;101458.23;;;19.94;33.52
67803;BME280;54601;51.378;-1.342;2023-05-18T02:35:17;101460.31;;;20.11;33.29
67803;BME280;54601;51.378;-1.342;2023-05-18T02:37:42;101458.99;;;20.04;33.40
67803;BME280;54601;51.378;-1.342;2023-05-18T02:40:09;101454.78;;;19.61;33.61
67803;BME280;54601;51.378;-1.342;2023-05-18T02:42:32;101453.13;;;20.11;33.29
67803;BME280;54601;51.378;-1.342;2023-05-18T02:44:57;101455.54;;;19.96;33.16
67803;BME280;54601;51.378;-1.342;2023-05-18T02:47:22;101451.63;;;19.86;33.30
67803;BME280;54601;51.378;-1.342;2023-05-18T02:49:47;101449.42;;;19.92;33.46
67803;BME280;54601;51.378;-1.342;2023-05-18T02:52:12;101449.62;;;19.59;33.58
67803;BME280;54601;51.378;-1.342;2023-05-18T02:54:37;101455.33;;;19.82;33.87
67803;BME280;54601;51.378;-1.342;2023-05-18T02:57:03;101454.31;;;19.67;33.48
67803;BME280;54601;51.378;-1.342;2023-05-18T02:59:27;101456.30;;;19.92;33.46
67803;BME280;54601;51.378;-1.342;2023-05-18T03:01:52;101455.84;;;19.69;33.43
67803;BME280;54601;51.378;-1.342;2023-05-18T03:04:17;101455.07;;;20.02;33.32
67803;BME280;54601;51.378;-1.342;2023-05-18T03:06:43;101455.20;;;19.43;33.76
67803;BME280;54601;51.378;-1.342;2023-05-18T03:09:08;101457.13;;;20.25;33.29
67803;BME280;54601;51.378;-1.342;2023-05-18T03:11:33;101453.63;;;20.04;33.53
67803;BME280;54601;51.378;-1.342;2023-05-18T03:13:58;101452.15;;;19.61;33.76
67803;BME280;54601;51.378;-1.342;2023-05-18T03:16:23;101450.01;;;19.92;33.10
67803;BME280;54601;51.378;-1.342;2023-05-18T03:18:48;101449.52;;;20.04;33.22
67803;BME280;54601;51.378;-1.342;2023-05-18T03:21:13;101447.69;;;20.09;33.40
67803;BME280;54601;51.378;-1.342;2023-05-18T03:23:38;101445.02;;;20.14;33.31
67803;BME280;54601;51.378;-1.342;2023-05-18T03:26:03;101448.34;;;20.01;33.48
67803;BME280;54601;51.378;-1.342;2023-05-18T03:28:28;101445.27;;;19.90;33.30
67803;BME280;54601;51.378;-1.342;2023-05-18T03:30:53;101445.05;;;20.10;33.34
67803;BME280;54601;51.378;-1.342;2023-05-18T03:33:18;101443.06;;;20.22;33.17
67803;BME280;54601;51.378;-1.342;2023-05-18T03:35:43;101444.44;;;20.02;33.45
67803;BME280;54601;51.378;-1.342;2023-05-18T03:38:08;101442.68;;;19.76;33.45
67803;BME280;54601;51.378;-1.342;2023-05-18T03:40:33;101442.40;;;19.33;33.69
67803;BME280;54601;51.378;-1.342;2023-05-18T03:42:58;101443.41;;;19.59;33.66
67803;BME280;54601;51.378;-1.342;2023-05-18T03:45:23;101441.15;;;19.99;33.42
67803;BME280;54601;51.378;-1.342;2023-05-18T03:47:48;101441.71;;;19.96;33.48
67803;BME280;54601;51.378;-1.342;2023-05-18T03:50:13;101443.82;;;20.22;33.13
67803;BME280;54601;51.378;-1.342;2023-05-18T03:52:39;101445.87;;;19.96;33.40
67803;BME280;54601;51.378;-1.342;2023-05-18T03:55:04;101448.74;;;19.66;33.51
67803;BME280;54601;51.378;-1.342;2023-05-18T03:57:28;101450.28;;;20.17;33.17
67803;BME280;54601;51.378;-1.342;2023-05-18T03:59:54;101449.85;;;19.82;33.35
67803;BME280;54601;51.378;-1.342;2023-05-18T04:02:18;101446.62;;;20.08;33.25
67803;BME280;54601;51.378;-1.342;2023-05-18T04:04:43;101445.98;;;19.77;33.35
67803;BME280;54601;51.378;-1.342;2023-05-18T04:07:08;101445.46;;;19.92;33.18
67803;BME280;54601;51.378;-1.342;2023-05-18T04:09:34;101444.52;;;19.58;33.26
67803;BME280;54601;51.378;-1.342;2023-05-18T04:11:58;101442.56;;;20.11;33.13
67803;BME280;54601;51.378;-1.342;2023-05-18T04:14:24;101440.92;;;19.57;33.27
67803;BME280;54601;51.378;-1.342;2023-05-18T04:16:49;101438.50;;;19.83;33.19
67803;BME280;54601;51.378;-1.342;2023-05-18T04:19:14;101441.78;;;19.84;33.12
67803;BME280;54601;51.378;-1.342;2023-05-18T04:21:39;101444.15;;;19.92;33.02
67803;BME280;54601;51.378;-1.342;2023-05-18T04:24:05;101444.63;;;20.11;33.08
67803;BME280;54601;51.378;-1.342;2023-05-18T04:26:29;101445.65;;;20.03;33.18
67803;BME280;54601;51.378;-1.342;2023-05-18T04:28:54;101444.88;;;20.11;33.08
67803;BME280;54601;51.378;-1.342;2023-05-18T04:31:19;101444.85;;;19.74;33.17
67803;BME280;54601;51.378;-1.342;2023-05-18T04:33:44;101443.72;;;20.15;32.91
67803;BME280;54601;51.378;-1.342;2023-05-18T04:36:09;101445.82;;;19.90;32.98
67803;BME280;54601;51.378;-1.342;2023-05-18T04:38:34;101445.97;;;20.17;32.95
67803;BME280;54601;51.378;-1.342;2023-05-18T04:40:59;101450.69;;;20.08;32.59
67803;BME280;54601;51.378;-1.342;2023-05-18T04:43:25;101448.80;;;20.04;33.08
67803;BME280;54601;51.378;-1.342;2023-05-18T04:45:49;101450.16;;;19.74;33.20
67803;BME280;54601;51.378;-1.342;2023-05-18T04:48:14;101451.69;;;19.91;33.22
67803;BME280;54601;51.378;-1.342;2023-05-18T04:50:39;101452.17;;;20.26;32.80
67803;BME280;54601;51.378;-1.342;2023-05-18T04:53:04;101454.74;;;19.60;33.01
67803;BME280;54601;51.378;-1.342;2023-05-18T04:55:29;101454.45;;;19.71;33.49
67803;BME280;54601;51.378;-1.342;2023-05-18T04:57:55;101454.12;;;20.03;32.97
67803;BME280;54601;51.378;-1.342;2023-05-18T05:00:20;101451.09;;;20.10;32.97
67803;BME280;54601;51.378;-1.342;2023-05-18T05:02:44;101452.32;;;20.30;32.55
67803;BME280;54601;51.378;-1.342;2023-05-18T05:05:09;101454.63;;;19.96;32.84
67803;BME280;54601;51.378;-1.342;2023-05-18T05:07:34;101457.70;;;19.84;32.94
67803;BME280;54601;51.378;-1.342;2023-05-18T05:09:59;101459.66;;;20.19;32.82
67803;BME280;54601;51.378;-1.342;2023-05-18T05:12:25;101456.88;;;19.94;33.10
67803;BME280;54601;51.378;-1.342;2023-05-18T05:14:49;101455.15;;;19.92;32.87
67803;BME280;54601;51.378;-1.342;2023-05-18T05:17:14;101454.63;;;20.43;32.53
67803;BME280;54601;51.378;-1.342;2023-05-18T05:19:40;101453.27;;;20.04;33.01
67803;BME280;54601;51.378;-1.342;2023-05-18T05:22:04;101453.64;;;20.05;32.83
67803;BME280;54601;51.378;-1.342;2023-05-18T05:24:29;101452.30;;;20.09;32.94
67803;BME280;54601;51.378;-1.342;2023-05-18T05:26:54;101453.16;;;20.19;32.85
67803;BME280;54601;51.378;-1.342;2023-05-18T05:29:20;101456.30;;;20.41;32.54
67803;BME280;54601;51.378;-1.342;2023-05-18T05:31:45;101459.47;;;19.97;32.78
67803;BME280;54601;51.378;-1.342;2023-05-18T05:34:10;101461.34;;;19.99;32.80
67803;BME280;54601;51.378;-1.342;2023-05-18T05:36:35;101460.85;;;19.77;32.77
67803;BME280;54601;51.378;-1.342;2023-05-18T05:39:01;101460.46;;;20.51;32.75
67803;BME280;54601;51.378;-1.342;2023-05-18T05:41:27;101465.01;;;19.62;33.19
67803;BME280;54601;51.378;-1.342;2023-05-18T05:43:53;101467.80;;;20.27;32.74
67803;BME280;54601;51.378;-1.342;2023-05-18T05:46:19;101467.71;;;19.98;32.83
67803;BME280;54601;51.378;-1.342;2023-05-18T05:48:45;101470.35;;;19.58;33.06
67803;BME280;54601;51.378;-1.342;2023-05-18T05:51:11;101469.84;;;20.16;32.93
67803;BME280;54601;51.378;-1.342;2023-05-18T05:53:37;101468.12;;;20.08;33.03
67803;BME280;54601;51.378;-1.342;2023-05-18T05:56:03;101469.12;;;19.85;33.32
67803;BME280;54601;51.378;-1.342;2023-05-18T05:58:29;101468.58;;;20.10;33.06
67803;BME280;54601;51.378;-1.342;2023-05-18T06:00:55;101469.47;;;19.87;33.34
67803;BME280;54601;51.378;-1.342;2023-05-18T06:03:21;101470.92;;;19.67;33.07
67803;BME280;54601;51.378;-1.342;2023-05-18T06:05:47;101471.22;;;20.12;33.05
67803;BME280;54601;51.378;-1.342;2023-05-18T06:08:13;101472.69;;;19.33;33.76
67803;BME280;54601;51.378;-1.342;2023-05-18T06:10:39;101471.69;;;20.12;33.11
67803;BME280;54601;51.378;-1.342;2023-05-18T06:13:05;101474.29;;;19.96;33.30
67803;BME280;54601;51.378;-1.342;2023-05-18T06:15:31;101473.03;;;20.04;32.95
67803;BME280;54601;51.378;-1.342;2023-05-18T06:17:57;101471.99;;;20.19;33.04
67803;BME280;54601;51.378;-1.342;2023-05-18T06:20:23;101471.83;;;20.27;32.93
67803;BME280;54601;51.378;-1.342;2023-05-18T06:22:49;101470.62;;;20.17;32.82
67803;BME280;54601;51.378;-1.342;2023-05-18T06:25:15;101472.76;;;20.20;32.61
67803;BME280;54601;51.378;-1.342;2023-05-18T06:27:41;101472.17;;;20.84;32.18
67803;BME280;54601;51.378;-1.342;2023-05-18T06:30:08;101472.62;;;20.96;32.20
67803;BME280;54601;51.378;-1.342;2023-05-18T06:32:33;101479.55;;;20.42;33.01
67803;BME280;54601;51.378;-1.342;2023-05-18T06:34:59;101479.35;;;20.59;33.17
67803;BME280;54601;51.378;-1.342;2023-05-18T06:37:25;101481.83;;;20.71;33.11
67803;BME280;54601;51.378;-1.342;2023-05-18T06:39:51;101481.69;;;20.45;33.46
67803;BME280;54601;51.378;-1.342;2023-05-18T06:42:17;101479.16;;;20.21;33.57
67803;BME280;54601;51.378;-1.342;2023-05-18T06:44:43;101475.97;;;19.86;34.03
67803;BME280;54601;51.378;-1.342;2023-05-18T06:47:09;101474.81;;;19.38;34.42
67803;BME280;54601;51.378;-1.342;2023-05-18T06:49:35;101477.63;;;19.76;34.57
67803;BME280;54601;51.378;-1.342;2023-05-18T06:52:01;101475.50;;;19.63;34.61
67803;BME280;54601;51.378;-1.342;2023-05-18T06:54:27;101474.56;;;19.61;34.39
67803;BME280;54601;51.378;-1.342;2023-05-18T06:56:53;101475.48;;;19.61;34.46
67803;BME280;54601;51.378;-1.342;2023-05-18T06:59:19;101477.53;;;19.92;34.09
67803;BME280;54601;51.378;-1.342;2023-05-18T07:01:45;101476.04;;;19.94;34.09
67803;BME280;54601;51.378;-1.342;2023-05-18T07:04:11;101478.05;;;20.08;33.90
67803;BME280;54601;51.378;-1.342;2023-05-18T07:06:37;101478.84;;;20.19;33.81
67803;BME280;54601;51.378;-1.342;2023-05-18T07:09:03;101482.57;;;20.12;33.89
67803;BME280;54601;51.378;-1.342;2023-05-18T07:11:29;101482.16;;;20.14;33.91
67803;BME280;54601;51.378;-1.342;2023-05-18T07:13:55;101484.10;;;20.18;33.90
67803;BME280;54601;51.378;-1.342;2023-05-18T07:16:21;101486.98;;;20.17;33.92
67803;BME280;54601;51.378;-1.342;2023-05-18T07:18:47;101488.92;;;20.23;33.89
67803;BME280;54601;51.378;-1.342;2023-05-18T07:21:13;101489.00;;;19.90;34.32
67803;BME280;54601;51.378;-1.342;2023-05-18T07:23:39;101490.36;;;20.17;34.30
67803;BME280;54601;51.378;-1.342;2023-05-18T07:26:04;101491.39;;;20.00;34.26
67803;BME280;54601;51.378;-1.342;2023-05-18T07:28:30;101492.41;;;20.01;34.28
67803;BME280;54601;51.378;-1.342;2023-05-18T07:30:56;101495.48;;;19.72;34.61
67803;BME280;54601;51.378;-1.342;2023-05-18T07:33:22;101499.10;;;19.77;34.64
67803;BME280;54601;51.378;-1.342;2023-05-18T07:35:48;101500.12;;;19.96;34.45
67803;BME280;54601;51.378;-1.342;2023-05-18T07:38:14;101501.16;;;19.92;34.56
67803;BME280;54601;51.378;-1.342;2023-05-18T07:40:40;101500.31;;;19.80;34.73
67803;BME280;54601;51.378;-1.342;2023-05-18T07:43:06;101501.12;;;19.71;34.90
67803;BME280;54601;51.378;-1.342;2023-05-18T07:45:32;101500.19;;;20.06;34.52
67803;BME280;54601;51.378;-1.342;2023-05-18T07:47:58;101501.28;;;20.05;34.53
67803;BME280;54601;51.378;-1.342;2023-05-18T07:50:24;101502.40;;;20.13;34.43
67803;BME280;54601;51.378;-1.342;2023-05-18T07:52:50;101498.03;;;20.30;34.23
67803;BME280;54601;51.378;-1.342;2023-05-18T07:55:16;101499.74;;;20.13;34.48
67803;BME280;54601;51.378;-1.342;2023-05-18T07:57:42;101500.39;;;19.72;34.40
67803;BME280;54601;51.378;-1.342;2023-05-18T08:00:09;101502.01;;;20.05;34.35
67803;BME280;54601;51.378;-1.342;2023-05-18T08:02:34;101499.47;;;20.40;34.24
67803;BME280;54601;51.378;-1.342;2023-05-18T08:04:59;101498.51;;;20.34;34.32
67803;BME280;54601;51.378;-1.342;2023-05-18T08:07:27;101496.73;;;20.36;34.02
67803;BME280;54601;51.378;-1.342;2023-05-18T08:09:51;101496.55;;;20.96;33.63
67803;BME280;54601;51.378;-1.342;2023-05-18T08:12:17;101495.89;;;20.54;33.83
67803;BME280;54601;51.378;-1.342;2023-05-18T08:14:43;101491.64;;;20.41;33.97
67803;BME280;54601;51.378;-1.342;2023-05-18T08:17:09;101492.69;;;20.69;33.63
67803;BME280;54601;51.378;-1.342;2023-05-18T08:19:35;101490.99;;;20.79;33.22
67803;BME280;54601;51.378;-1.342;2023-05-18T08:22:01;101490.86;;;20.98;33.26
67803;BME280;54601;51.378;-1.342;2023-05-18T08:24:27;101491.59;;;21.04;33.22
67803;BME280;54601;51.378;-1.342;2023-05-18T08:26:53;101491.27;;;20.74;33.36
67803;BME280;54601;51.378;-1.342;2023-05-18T08:29:19;101490.38;;;21.41;33.18
67803;BME280;54601;51.378;-1.342;2023-05-18T08:31:45;101487.70;;;20.98;33.09
67803;BME280;54601;51.378;-1.342;2023-05-18T08:34:11;101490.23;;;21.09;33.25
67803;BME280;54601;51.378;-1.342;2023-05-18T08:36:37;101490.75;;;21.53;33.08
67803;BME280;54601;51.378;-1.342;2023-05-18T08:39:03;101485.90;;;21.16;32.94
67803;BME280;54601;51.378;-1.342;2023-05-18T08:41:30;101487.20;;;21.78;32.77
67803;BME280;54601;51.378;-1.342;2023-05-18T08:44:00;101487.96;;;21.50;32.84
67803;BME280;54601;51.378;-1.342;2023-05-18T08:46:24;101488.83;;;21.63;32.43
67803;BME280;54601;51.378;-1.342;2023-05-18T08:48:50;101489.55;;;21.67;32.33
67803;BME280;54601;51.378;-1.342;2023-05-18T08:51:12;101491.69;;;22.02;32.02
67803;BME280;54601;51.378;-1.342;2023-05-18T08:53:38;101491.31;;;21.98;32.06
67803;BME280;54601;51.378;-1.342;2023-05-18T08:56:04;101491.46;;;22.05;31.95
67803;BME280;54601;51.378;-1.342;2023-05-18T08:58:34;101490.62;;;22.40;31.55
67803;BME280;54601;51.378;-1.342;2023-05-18T09:00:56;101487.11;;;22.36;31.37
67803;BME280;54601;51.378;-1.342;2023-05-18T09:03:22;101485.04;;;22.21;31.77
67803;BME280;54601;51.378;-1.342;2023-05-18T09:05:48;101484.17;;;22.08;31.70
67803;BME280;54601;51.378;-1.342;2023-05-18T09:08:13;101482.66;;;22.57;31.42
67803;BME280;54601;51.378;-1.342;2023-05-18T09:10:39;101482.42;;;22.88;31.07
67803;BME280;54601;51.378;-1.342;2023-05-18T09:13:05;101480.68;;;22.66;31.30
67803;BME280;54601;51.378;-1.342;2023-05-18T09:15:32;101481.43;;;22.82;31.11
67803;BME280;54601;51.378;-1.342;2023-05-18T09:17:56;101483.04;;;22.72;31.26
67803;BME280;54601;51.378;-1.342;2023-05-18T09:20:24;101480.09;;;22.78;31.00
67803;BME280;54601;51.378;-1.342;2023-05-18T09:22:49;101480.62;;;22.96;31.08
67803;BME280;54601;51.378;-1.342;2023-05-18T09:25:15;101478.86;;;22.93;31.07
67803;BME280;54601;51.378;-1.342;2023-05-18T09:27:40;101476.35;;;23.07;31.01
67803;BME280;54601;51.378;-1.342;2023-05-18T09:30:09;101479.92;;;23.10;30.86
67803;BME280;54601;51.378;-1.342;2023-05-18T09:32:34;101477.48;;;23.28;30.73
67803;BME280;54601;51.378;-1.342;2023-05-18T09:35:03;101476.12;;;23.18;30.76
67803;BME280;54601;51.378;-1.342;2023-05-18T09:37:23;101477.69;;;22.91;30.90
67803;BME280;54601;51.378;-1.342;2023-05-18T09:39:58;101478.87;;;22.95;30.82
67803;BME280;54601;51.378;-1.342;2023-05-18T09:42:15;101477.16;;;23.04;30.73
67803;BME280;54601;51.378;-1.342;2023-05-18T09:44:41;101473.34;;;22.87;30.54
67803;BME280;54601;51.378;-1.342;2023-05-18T09:47:08;101471.71;;;23.11;30.69
67803;BME280;54601;51.378;-1.342;2023-05-18T09:49:33;101471.91;;;23.11;30.72
67803;BME280;54601;51.378;-1.342;2023-05-18T09:51:59;101473.79;;;23.08;30.94
67803;BME280;54601;51.378;-1.342;2023-05-18T09:54:25;101475.39;;;23.25;30.83
67803;BME280;54601;51.378;-1.342;2023-05-18T09:56:50;101475.60;;;23.16;30.89
67803;BME280;54601;51.378;-1.342;2023-05-18T09:59:16;101473.50;;;23.10;30.80
67803;BME280;54601;51.378;-1.342;2023-05-18T10:04:08;101469.79;;;22.92;30.54
67803;BME280;54601;51.378;-1.342;2023-05-18T10:06:34;101467.99;;;22.92;30.66
67803;BME280;54601;51.378;-1.342;2023-05-18T10:09:01;101466.50;;;23.22;30.64
67803;BME280;54601;51.378;-1.342;2023-05-18T10:11:30;101469.96;;;22.97;30.56
67803;BME280;54601;51.378;-1.342;2023-05-18T10:13:53;101470.36;;;23.43;30.57
67803;BME280;54601;51.378;-1.342;2023-05-18T10:16:17;101471.27;;;22.82;30.72
67803;BME280;54601;51.378;-1.342;2023-05-18T10:18:44;101468.71;;;23.43;30.59
67803;BME280;54601;51.378;-1.342;2023-05-18T10:21:10;101467.85;;;23.21;30.58
67803;BME280;54601;51.378;-1.342;2023-05-18T10:23:36;101465.92;;;23.18;30.72
67803;BME280;54601;51.378;-1.342;2023-05-18T10:26:04;101465.74;;;23.44;30.65
67803;BME280;54601;51.378;-1.342;2023-05-18T10:28:36;101464.10;;;22.86;30.73
67803;BME280;54601;51.378;-1.342;2023-05-18T10:30:54;101463.01;;;23.33;30.77
67803;BME280;54601;51.378;-1.342;2023-05-18T10:33:20;101462.76;;;22.82;30.75
67803;BME280;54601;51.378;-1.342;2023-05-18T10:35:46;101461.87;;;23.05;30.79
67803;BME280;54601;51.378;-1.342;2023-05-18T10:38:10;101461.47;;;23.02;30.83
67803;BME280;54601;51.378;-1.342;2023-05-18T10:40:39;101463.02;;;23.24;30.80
67803;BME280;54601;51.378;-1.342;2023-05-18T10:43:03;101463.28;;;22.99;30.83
67803;BME280;54601;51.378;-1.342;2023-05-18T10:45:32;101463.42;;;23.25;30.80
67803;BME280;54601;51.378;-1.342;2023-05-18T10:47:56;101465.52;;;22.66;30.90
67803;BME280;54601;51.378;-1.342;2023-05-18T10:50:22;101466.75;;;23.18;30.85
67803;BME280;54601;51.378;-1.342;2023-05-18T10:52:46;101467.58;;;22.94;30.86
67803;BME280;54601;51.378;-1.342;2023-05-18T10:55:12;101466.58;;;23.00;30.80
67803;BME280;54601;51.378;-1.342;2023-05-18T10:57:40;101467.08;;;23.00;30.83
67803;BME280;54601;51.378;-1.342;2023-05-18T11:00:05;101471.16;;;23.08;30.72
67803;BME280;54601;51.378;-1.342;2023-05-18T11:02:29;101470.01;;;22.80;30.76
67803;BME280;54601;51.378;-1.342;2023-05-18T11:04:55;101470.56;;;23.11;30.64
67803;BME280;54601;51.378;-1.342;2023-05-18T11:07:22;101470.64;;;23.14;30.68
67803;BME280;54601;51.378;-1.342;2023-05-18T11:09:48;101469.35;;;23.32;30.73
67803;BME280;54601;51.378;-1.342;2023-05-18T11:12:14;101467.74;;;22.91;30.63
67803;BME280;54601;51.378;-1.342;2023-05-18T11:14:47;101466.31;;;23.13;30.75
67803;BME280;54601;51.378;-1.342;2023-05-18T11:17:14;101470.88;;;22.86;30.78
67803;BME280;54601;51.378;-1.342;2023-05-18T11:19:30;101470.02;;;22.89;30.70
67803;BME280;54601;51.378;-1.342;2023-05-18T11:21:56;101468.19;;;22.84;30.76
67803;BME280;54601;51.378;-1.342;2023-05-18T11:24:27;101468.22;;;22.85;30.76
67803;BME280;54601;51.378;-1.342;2023-05-18T11:26:50;101468.45;;;23.04;30.84
67803;BME280;54601;51.378;-1.342;2023-05-18T11:29:16;101467.78;;;22.99;30.88
67803;BME280;54601;51.378;-1.342;2023-05-18T11:31:43;101465.13;;;22.94;30.93
67803;BME280;54601;51.378;-1.342;2023-05-18T11:39:02;101463.30;;;22.60;31.03
67803;BME280;54601;51.378;-1.342;2023-05-18T11:41:28;101456.59;;;22.91;30.99
67803;BME280;54601;51.378;-1.342;2023-05-18T11:46:17;101456.26;;;23.04;30.80
67803;BME280;54601;51.378;-1.342;2023-05-18T11:48:43;101452.05;;;23.03;30.84
67803;BME280;54601;51.378;-1.342;2023-05-18T11:51:07;101451.28;;;22.70;30.95
67803;BME280;54601;51.378;-1.342;2023-05-18T11:53:33;101452.95;;;23.16;30.96
67803;BME280;54601;51.378;-1.342;2023-05-18T11:55:58;101449.64;;;23.00;30.87
67803;BME280;54601;51.378;-1.342;2023-05-18T11:58:25;101450.99;;;23.21;30.88
67803;BME280;54601;51.378;-1.342;2023-05-18T12:00:50;101449.95;;;22.96;30.94
67803;BME280;54601;51.378;-1.342;2023-05-18T12:03:16;101448.31;;;23.17;30.96
67803;BME280;54601;51.378;-1.342;2023-05-18T12:05:43;101443.88;;;22.70;30.94
67803;BME280;54601;51.378;-1.342;2023-05-18T12:08:08;101443.17;;;23.16;30.97
67803;BME280;54601;51.378;-1.342;2023-05-18T12:10:34;101441.61;;;23.16;30.96
67803;BME280;54601;51.378;-1.342;2023-05-18T12:12:59;101438.25;;;23.18;30.97
67803;BME280;54601;51.378;-1.342;2023-05-18T12:15:26;101435.68;;;23.13;31.00
67803;BME280;54601;51.378;-1.342;2023-05-18T12:17:51;101433.30;;;22.92;31.03
67803;BME280;54601;51.378;-1.342;2023-05-18T12:20:19;101430.61;;;22.97;30.96
67803;BME280;54601;51.378;-1.342;2023-05-18T12:22:45;101422.23;;;22.88;30.76
67803;BME280;54601;51.378;-1.342;2023-05-18T12:25:09;101421.71;;;22.93;30.67
67803;BME280;54601;51.378;-1.342;2023-05-18T12:27:37;101419.00;;;22.90;30.72
67803;BME280;54601;51.378;-1.342;2023-05-18T12:30:01;101420.78;;;23.11;30.71
67803;BME280;54601;51.378;-1.342;2023-05-18T12:32:29;101419.18;;;23.02;30.85
67803;BME280;54601;51.378;-1.342;2023-05-18T12:34:52;101420.06;;;22.75;30.82
67803;BME280;54601;51.378;-1.342;2023-05-18T12:37:22;101416.97;;;22.60;30.98
67803;BME280;54601;51.378;-1.342;2023-05-18T12:39:44;101414.53;;;23.10;30.99
67803;BME280;54601;51.378;-1.342;2023-05-18T12:42:11;101413.91;;;22.84;31.00